This is the latest recevied weather packets stored in our database for station/object K4PAD. If no packets are shown the sender has not sent any weather packets the latest 10 day(s).
| Time | Temp. | Humidity | Pressure | Rain* | Wind** | Luminosity | Snow |
|---|---|---|---|---|---|---|---|
| 1777833345 | 24.44° C | 42% | 1019.7 hPa | 0 mm | - | 1051 W/m² | - |
| 1777833043 | 23.33° C | 43% | 1020.1 hPa | 0 mm | - | 1050 W/m² | - |
| 1777832741 | 21.67° C | 49% | 1020.1 hPa | 0 mm | - | 1032 W/m² | - |
| 1777832439 | 22.78° C | 47% | 1020.2 hPa | 0 mm | - | 244 W/m² | - |
| 1777832135 | 23.33° C | 45% | 1020.2 hPa | 0 mm | - | 223 W/m² | - |
| 1777831832 | 22.78° C | 47% | 1020.4 hPa | 0 mm | - | 1173 W/m² | - |
| 1777831529 | 23.33° C | 46% | 1020.3 hPa | 0 mm | - | 670 W/m² | - |
| 1777831226 | 22.78° C | 47% | 1020.4 hPa | 0 mm | - | 1112 W/m² | - |
| 1777830924 | 23.33° C | 44% | 1020.5 hPa | 0 mm | - | 1088 W/m² | - |
| 1777830620 | 23.89° C | 45% | 1020.4 hPa | 0 mm | - | 1109 W/m² | - |
| 1777830318 | 23.33° C | 49% | 1020.4 hPa | 0 mm | - | 1086 W/m² | - |
| 1777830014 | 22.78° C | 47% | 1020.4 hPa | 0 mm | - | 1110 W/m² | - |
| 1777829709 | 22.78° C | 49% | 1020.3 hPa | 0 mm | - | 1073 W/m² | - |
| 1777829406 | 23.33° C | 47% | 1020.6 hPa | 0 mm | - | 349 W/m² | - |
| 1777829104 | 23.89° C | 46% | 1020.4 hPa | 0 mm | - | 1150 W/m² | - |
| 1777828800 | 23.33° C | 51% | 1020.5 hPa | 0 mm | - | 1142 W/m² | - |
| 1777828497 | 22.22° C | 50% | 1020.7 hPa | 0 mm | - | 1140 W/m² | - |
| 1777828194 | 23.33° C | 50% | 1021 hPa | 0 mm | - | 291 W/m² | - |
| 1777827890 | 23.33° C | 49% | 1020.7 hPa | 0 mm | - | 1230 W/m² | - |
| 1777827587 | 22.22° C | 51% | 1021.1 hPa | 0 mm | - | 1167 W/m² | - |
| 1777827285 | 21.67° C | 56% | 1021 hPa | 0 mm | - | 1165 W/m² | - |
| 1777826981 | 22.22° C | 55% | 1020.8 hPa | 0 mm | - | 208 W/m² | - |
| 1777826679 | 23.33° C | 51% | 1020.9 hPa | 0 mm | - | 268 W/m² | - |
| 1777826375 | 22.22° C | 55% | 1021 hPa | 0 mm | - | 1132 W/m² | - |
| 1777826072 | 21.67° C | 58% | 1021.1 hPa | 0 mm | - | 873 W/m² | - |
* Rain latest hour (hover to see other rain measurements)
** Current wind speed in m/s (hover to see current wind gust speed)